Time;durP1;ratioP1;P1;durP2;ratioP2;P2;SDS_P1;SDS_P2;PMS_P1;PMS_P2;Temp;Humidity;BMP_temperature;BMP_pressure;BME280_temperature;BME280_humidity;BME280_pressure;Samples;Min_cycle;Max_cycle;Signal;HPM_P1;HPM_P2
2024/01/29 00:02:08;;;;;;;13.90;9.25;;;;;;;;;;4987423;28;20062;-67
2024/01/29 00:04:34;;;;;;;14.05;9.57;;;;;;;;;;4985960;28;20085;-67
2024/01/29 00:07:00;;;;;;;14.73;9.68;;;;;;;;;;4991799;28;20042;-67
2024/01/29 00:09:26;;;;;;;13.65;9.27;;;;;;;;;;4985514;28;20158;-67
2024/01/29 00:11:52;;;;;;;15.88;9.38;;;;;;;;;;4981546;28;20058;-67
2024/01/29 00:14:18;;;;;;;13.35;9.48;;;;;;;;;;4990282;28;20046;-67
2024/01/29 00:16:44;;;;;;;10.93;8.68;;;;;;;;;;4986859;28;20075;-67
2024/01/29 00:19:10;;;;;;;13.00;9.85;;;;;;;;;;4989540;28;20564;-67
2024/01/29 00:21:36;;;;;;;17.13;9.13;;;;;;;;;;4982945;28;20046;-67
2024/01/29 00:24:02;;;;;;;12.82;9.55;;;;;;;;;;4992075;28;20050;-67
2024/01/29 00:26:28;;;;;;;12.82;9.57;;;;;;;;;;4983416;28;20050;-67
2024/01/29 00:28:55;;;;;;;12.40;9.50;;;;;;;;;;4991408;28;20049;-67
2024/01/29 00:31:24;;;;;;;12.15;9.55;;;;;;;;;;4986651;28;20691;-67
2024/01/29 00:33:51;;;;;;;14.85;9.80;;;;;;;;;;4985601;28;20457;-67
2024/01/29 00:36:17;;;;;;;16.42;9.43;;;;;;;;;;4993416;28;20097;-67
2024/01/29 00:38:43;;;;;;;10.50;9.10;;;;;;;;;;4990708;28;20050;-67
2024/01/29 00:41:09;;;;;;;11.90;9.40;;;;;;;;;;4989585;28;20046;-67
2024/01/29 00:43:35;;;;;;;11.30;8.60;;;;;;;;;;4990845;28;20096;-67
2024/01/29 00:46:01;;;;;;;12.40;9.43;;;;;;;;;;4992209;28;20050;-67
2024/01/29 00:48:27;;;;;;;14.85;9.90;;;;;;;;;;4992515;28;20113;-67
2024/01/29 00:50:53;;;;;;;13.05;9.23;;;;;;;;;;4984703;28;20494;-67
2024/01/29 00:53:19;;;;;;;11.77;9.07;;;;;;;;;;4993388;28;20070;-67
2024/01/29 00:55:48;;;;;;;13.23;9.43;;;;;;;;;;5020206;28;20046;-67
2024/01/29 00:58:17;;;;;;;13.13;9.63;;;;;;;;;;4984937;28;20046;-67
2024/01/29 01:00:43;;;;;;;11.98;9.40;;;;;;;;;;5013682;28;20050;-67
2024/01/29 01:03:09;;;;;;;13.52;9.85;;;;;;;;;;4982588;28;20049;-67
2024/01/29 01:05:35;;;;;;;12.38;9.82;;;;;;;;;;5015773;28;20499;-67
2024/01/29 01:08:01;;;;;;;11.23;9.05;;;;;;;;;;5015024;28;20042;-67
2024/01/29 01:10:27;;;;;;;15.65;10.27;;;;;;;;;;4983300;28;20545;-67
2024/01/29 01:12:53;;;;;;;12.35;9.82;;;;;;;;;;5013669;28;20096;-67
2024/01/29 01:15:20;;;;;;;12.98;10.02;;;;;;;;;;4983949;28;20046;-67
2024/01/29 01:17:46;;;;;;;13.27;10.00;;;;;;;;;;5018092;28;20487;-67
2024/01/29 01:20:12;;;;;;;14.07;10.68;;;;;;;;;;5017504;28;20514;-68
2024/01/29 01:22:38;;;;;;;15.82;10.13;;;;;;;;;;5019125;28;20050;-67
2024/01/29 01:25:05;;;;;;;14.52;10.35;;;;;;;;;;4997106;28;20050;-67
2024/01/29 01:27:31;;;;;;;12.70;9.80;;;;;;;;;;4999557;28;20056;-67
2024/01/29 01:29:57;;;;;;;14.25;10.25;;;;;;;;;;4997067;28;20066;-67
2024/01/29 01:32:23;;;;;;;15.13;9.75;;;;;;;;;;5030373;28;20069;-67
2024/01/29 01:34:49;;;;;;;14.52;10.40;;;;;;;;;;4995130;28;20066;-67
2024/01/29 01:37:15;;;;;;;15.52;10.73;;;;;;;;;;4995863;28;20478;-67
2024/01/29 01:39:41;;;;;;;12.88;10.40;;;;;;;;;;4991146;28;20049;-67
2024/01/29 01:42:08;;;;;;;15.02;10.93;;;;;;;;;;4996581;28;20051;-66
2024/01/29 01:44:36;;;;;;;16.88;10.95;;;;;;;;;;4989993;28;20498;-66
2024/01/29 01:47:02;;;;;;;13.88;10.50;;;;;;;;;;4991054;28;20097;-67
2024/01/29 01:49:29;;;;;;;15.55;10.90;;;;;;;;;;4992038;28;20042;-66
2024/01/29 01:51:55;;;;;;;13.98;10.75;;;;;;;;;;4992256;28;20057;-66
2024/01/29 01:54:22;;;;;;;16.60;10.98;;;;;;;;;;4988522;28;20046;-67
2024/01/29 01:56:49;;;;;;;14.70;11.10;;;;;;;;;;5017524;28;20053;-67
2024/01/29 01:59:15;;;;;;;15.85;11.02;;;;;;;;;;4987083;28;20068;-66
2024/01/29 02:01:41;;;;;;;15.38;10.98;;;;;;;;;;4988923;28;20180;-67
2024/01/29 02:04:07;;;;;;;17.25;11.68;;;;;;;;;;5015837;28;20054;-67
2024/01/29 02:06:34;;;;;;;13.77;11.25;;;;;;;;;;4990234;28;20514;-66
2024/01/29 02:09:01;;;;;;;15.52;11.20;;;;;;;;;;4986656;28;20061;-66
2024/01/29 02:11:27;;;;;;;15.40;10.55;;;;;;;;;;4985282;28;20096;-67
2024/01/29 02:13:53;;;;;;;12.25;10.32;;;;;;;;;;4981151;28;21226;-66
2024/01/29 02:16:19;;;;;;;16.13;11.65;;;;;;;;;;4988964;28;20482;-67
2024/01/29 02:18:45;;;;;;;12.98;10.93;;;;;;;;;;5018211;28;20101;-67
2024/01/29 02:21:11;;;;;;;14.52;10.98;;;;;;;;;;4990258;28;20099;-66
2024/01/29 02:23:37;;;;;;;13.52;11.00;;;;;;;;;;4989615;28;20046;-66
2024/01/29 02:26:03;;;;;;;15.40;11.55;;;;;;;;;;4989795;28;20050;-66
2024/01/29 02:28:29;;;;;;;13.40;11.45;;;;;;;;;;4995191;28;20125;-67
2024/01/29 02:30:55;;;;;;;16.25;12.15;;;;;;;;;;5022693;28;20065;-67
2024/01/29 02:33:21;;;;;;;16.20;12.15;;;;;;;;;;4992178;28;20038;-66
2024/01/29 02:35:47;;;;;;;15.48;11.32;;;;;;;;;;4991763;28;20046;-66
2024/01/29 02:38:13;;;;;;;14.80;12.25;;;;;;;;;;4989287;28;20049;-66
2024/01/29 02:40:39;;;;;;;14.98;11.80;;;;;;;;;;5021733;28;20038;-66
2024/01/29 02:43:05;;;;;;;16.52;11.27;;;;;;;;;;4995115;28;20046;-67
2024/01/29 02:45:31;;;;;;;18.05;12.30;;;;;;;;;;4992450;28;20112;-67
2024/01/29 02:47:57;;;;;;;18.67;11.95;;;;;;;;;;4989659;28;20482;-66
2024/01/29 02:50:25;;;;;;;14.52;10.82;;;;;;;;;;4991828;28;20042;-66
2024/01/29 02:52:51;;;;;;;16.83;11.85;;;;;;;;;;4988209;28;20069;-66
2024/01/29 02:55:17;;;;;;;12.68;10.98;;;;;;;;;;4992620;28;20053;-67
2024/01/29 02:57:44;;;;;;;16.83;11.88;;;;;;;;;;5017458;28;20398;-66
2024/01/29 03:00:10;;;;;;;15.00;11.55;;;;;;;;;;4986254;28;20062;-66
2024/01/29 03:02:36;;;;;;;13.50;11.48;;;;;;;;;;5017108;28;20078;-67
2024/01/29 03:05:02;;;;;;;14.00;11.75;;;;;;;;;;4985264;28;20084;-66
2024/01/29 03:07:28;;;;;;;16.35;11.77;;;;;;;;;;4983035;28;20061;-67
2024/01/29 03:09:55;;;;;;;13.88;11.80;;;;;;;;;;4996536;28;20166;-67
2024/01/29 03:12:21;;;;;;;14.57;11.80;;;;;;;;;;4992262;28;20126;-67
2024/01/29 03:14:47;;;;;;;15.88;12.43;;;;;;;;;;5024714;28;20066;-66
2024/01/29 03:17:13;;;;;;;13.77;11.05;;;;;;;;;;4990431;28;20426;-67
2024/01/29 03:19:39;;;;;;;14.88;11.93;;;;;;;;;;4984629;28;20053;-66
2024/01/29 03:22:05;;;;;;;19.02;12.20;;;;;;;;;;4984354;28;20039;-66
2024/01/29 03:24:31;;;;;;;17.15;12.15;;;;;;;;;;5023102;28;20165;-66
2024/01/29 03:26:57;;;;;;;14.75;12.15;;;;;;;;;;4993213;28;20117;-66
2024/01/29 03:29:23;;;;;;;14.48;11.18;;;;;;;;;;4992560;28;20050;-66
2024/01/29 03:31:50;;;;;;;16.60;11.90;;;;;;;;;;4990756;28;20062;-66
2024/01/29 03:34:16;;;;;;;15.13;11.55;;;;;;;;;;5021285;28;20046;-66
2024/01/29 03:36:44;;;;;;;14.45;11.80;;;;;;;;;;4989061;28;20415;-66
2024/01/29 03:39:10;;;;;;;17.90;11.93;;;;;;;;;;4991301;28;20051;-67
2024/01/29 03:41:36;;;;;;;14.15;12.20;;;;;;;;;;4986613;28;20042;-66
2024/01/29 03:44:02;;;;;;;15.75;12.00;;;;;;;;;;4994964;28;20336;-66
2024/01/29 03:46:28;;;;;;;16.45;11.38;;;;;;;;;;4987970;28;20101;-66
2024/01/29 03:48:54;;;;;;;15.15;11.45;;;;;;;;;;4985518;28;20050;-67
2024/01/29 03:51:20;;;;;;;16.65;12.32;;;;;;;;;;4993408;28;20390;-66
2024/01/29 03:53:46;;;;;;;16.02;12.70;;;;;;;;;;5022828;28;20057;-67
2024/01/29 03:56:12;;;;;;;15.80;12.13;;;;;;;;;;4987581;28;20139;-67
2024/01/29 03:58:38;;;;;;;16.52;12.45;;;;;;;;;;4981395;28;20058;-67
2024/01/29 04:01:04;;;;;;;14.90;11.60;;;;;;;;;;4985212;28;20042;-66
2024/01/29 04:03:30;;;;;;;17.63;12.55;;;;;;;;;;4983606;28;20136;-67
2024/01/29 04:05:56;;;;;;;16.63;12.85;;;;;;;;;;4984208;28;20049;-67
2024/01/29 04:08:22;;;;;;;14.93;12.15;;;;;;;;;;4985304;28;20046;-67
2024/01/29 04:10:48;;;;;;;17.95;12.82;;;;;;;;;;4983889;28;20406;-66
2024/01/29 04:13:14;;;;;;;13.15;11.43;;;;;;;;;;4983643;28;20553;-67
2024/01/29 04:15:40;;;;;;;15.88;12.70;;;;;;;;;;5015603;28;20050;-67
2024/01/29 04:18:06;;;;;;;16.25;13.15;;;;;;;;;;5016825;28;20055;-67
2024/01/29 04:20:32;;;;;;;18.10;12.52;;;;;;;;;;4980943;28;20042;-67
2024/01/29 04:22:58;;;;;;;16.80;12.90;;;;;;;;;;5016067;28;20131;-66
2024/01/29 04:25:24;;;;;;;17.77;13.45;;;;;;;;;;5018281;28;20050;-66
2024/01/29 04:27:51;;;;;;;17.15;13.30;;;;;;;;;;4987320;28;20046;-67
2024/01/29 04:30:17;;;;;;;17.08;12.55;;;;;;;;;;4989726;28;20050;-67
2024/01/29 04:32:43;;;;;;;18.05;13.38;;;;;;;;;;4990707;28;20105;-66
2024/01/29 04:35:09;;;;;;;15.27;12.48;;;;;;;;;;4988592;28;20046;-67
2024/01/29 04:37:35;;;;;;;16.20;12.40;;;;;;;;;;5020172;28;20046;-66
2024/01/29 04:40:02;;;;;;;16.13;12.60;;;;;;;;;;4992513;28;20101;-66
2024/01/29 04:42:28;;;;;;;16.42;12.30;;;;;;;;;;5023141;28;20121;-66
2024/01/29 04:44:54;;;;;;;18.45;13.32;;;;;;;;;;4984331;28;20038;-67
2024/01/29 04:47:20;;;;;;;18.42;13.23;;;;;;;;;;4989437;28;20046;-66
2024/01/29 04:49:46;;;;;;;17.55;13.07;;;;;;;;;;4987455;28;20050;-66
2024/01/29 04:52:12;;;;;;;15.43;13.32;;;;;;;;;;4993201;28;20758;-67
2024/01/29 04:54:38;;;;;;;15.23;12.20;;;;;;;;;;4990582;28;20061;-66
2024/01/29 04:57:04;;;;;;;17.30;13.23;;;;;;;;;;4989832;28;20046;-66
2024/01/29 04:59:30;;;;;;;17.00;12.95;;;;;;;;;;5017552;28;20050;-66
2024/01/29 05:01:56;;;;;;;18.10;12.90;;;;;;;;;;4981939;28;20479;-67
2024/01/29 05:04:22;;;;;;;16.35;13.23;;;;;;;;;;4984227;28;20147;-66
2024/01/29 05:06:48;;;;;;;17.08;12.93;;;;;;;;;;4984123;28;20458;-67
2024/01/29 05:09:14;;;;;;;18.65;13.65;;;;;;;;;;4984070;28;20509;-66
2024/01/29 05:11:41;;;;;;;16.63;13.20;;;;;;;;;;4989245;28;20050;-67
2024/01/29 05:14:07;;;;;;;18.73;13.73;;;;;;;;;;4982256;28;20054;-66
2024/01/29 05:16:34;;;;;;;19.85;14.00;;;;;;;;;;4984177;28;20050;-66
2024/01/29 05:19:00;;;;;;;19.67;13.85;;;;;;;;;;4983566;28;20076;-67
2024/01/29 05:21:27;;;;;;;18.27;13.85;;;;;;;;;;5013303;28;20073;-66
2024/01/29 05:23:53;;;;;;;18.05;13.63;;;;;;;;;;5014610;28;20503;-66
2024/01/29 05:26:19;;;;;;;18.88;13.93;;;;;;;;;;4982277;28;20130;-67
2024/01/29 05:28:45;;;;;;;17.88;14.13;;;;;;;;;;4984906;28;20057;-67
2024/01/29 05:31:11;;;;;;;17.58;14.25;;;;;;;;;;4984658;28;20105;-67
2024/01/29 05:33:39;;;;;;;17.23;13.63;;;;;;;;;;5015242;28;20034;-66
2024/01/29 05:36:06;;;;;;;16.38;13.98;;;;;;;;;;4983881;28;20086;-66
2024/01/29 05:38:32;;;;;;;17.98;13.88;;;;;;;;;;4981799;28;20043;-67
2024/01/29 05:40:58;;;;;;;18.65;14.57;;;;;;;;;;5020297;28;20406;-66
2024/01/29 05:43:24;;;;;;;18.02;14.00;;;;;;;;;;4990797;28;20045;-67
2024/01/29 05:45:50;;;;;;;19.15;13.85;;;;;;;;;;4983896;28;20046;-67
2024/01/29 05:48:16;;;;;;;18.95;14.27;;;;;;;;;;4987699;28;20046;-69
2024/01/29 05:50:42;;;;;;;17.63;13.95;;;;;;;;;;4986486;28;20043;-66
2024/01/29 05:53:08;;;;;;;18.90;14.73;;;;;;;;;;4988279;28;20059;-66
2024/01/29 05:55:34;;;;;;;18.50;13.82;;;;;;;;;;4983452;28;20038;-66
2024/01/29 05:58:00;;;;;;;21.73;14.40;;;;;;;;;;4990361;28;20043;-66
2024/01/29 06:00:26;;;;;;;17.65;13.65;;;;;;;;;;4991032;28;20050;-66
2024/01/29 06:02:52;;;;;;;18.90;14.65;;;;;;;;;;4986437;28;20399;-66
2024/01/29 06:05:18;;;;;;;19.15;15.50;;;;;;;;;;4988127;28;20042;-67
2024/01/29 06:07:44;;;;;;;18.30;14.55;;;;;;;;;;4982894;28;20050;-66
2024/01/29 06:10:13;;;;;;;19.05;14.60;;;;;;;;;;4988448;28;20491;-67
2024/01/29 06:12:42;;;;;;;19.88;14.88;;;;;;;;;;4987533;28;20073;-66
2024/01/29 06:15:08;;;;;;;18.90;15.18;;;;;;;;;;4990831;28;20061;-66
2024/01/29 06:17:34;;;;;;;19.92;14.75;;;;;;;;;;4989998;28;20038;-67
2024/01/29 06:20:00;;;;;;;20.05;15.38;;;;;;;;;;4990107;28;20046;-66
2024/01/29 06:22:26;;;;;;;18.63;15.18;;;;;;;;;;4988732;28;20493;-66
2024/01/29 06:24:52;;;;;;;18.40;15.15;;;;;;;;;;4990011;28;20506;-66
2024/01/29 06:27:18;;;;;;;21.10;15.25;;;;;;;;;;4992776;28;20140;-66
2024/01/29 06:29:44;;;;;;;20.38;15.15;;;;;;;;;;4988318;28;20177;-66
2024/01/29 06:32:10;;;;;;;21.27;16.27;;;;;;;;;;4991546;28;20133;-66
2024/01/29 06:34:42;;;;;;;21.02;16.33;;;;;;;;;;4992510;28;20038;-66
2024/01/29 06:37:09;;;;;;;20.63;15.50;;;;;;;;;;4992106;28;20069;-67
2024/01/29 06:39:35;;;;;;;23.58;16.52;;;;;;;;;;4988855;28;20117;-66
2024/01/29 06:42:01;;;;;;;20.83;15.90;;;;;;;;;;4990563;28;20058;-66
2024/01/29 06:44:27;;;;;;;22.23;15.30;;;;;;;;;;4992386;28;20061;-66
2024/01/29 06:46:53;;;;;;;19.95;16.10;;;;;;;;;;4989611;28;20050;-66
2024/01/29 06:49:26;;;;;;;20.05;16.10;;;;;;;;;;4983194;28;20511;-66
2024/01/29 06:51:52;;;;;;;;;;;;;;;;;;4991594;28;20058;-67
2024/01/29 06:54:18;;;;;;;18.05;15.40;;;;;;;;;;4990014;28;19932;-67
2024/01/29 06:56:44;;;;;;;20.77;15.38;;;;;;;;;;4991805;28;20061;-66
2024/01/29 06:59:11;;;;;;;20.98;15.82;;;;;;;;;;5020271;28;20137;-66
2024/01/29 07:01:37;;;;;;;18.50;15.18;;;;;;;;;;5019153;28;20042;-66
2024/01/29 07:04:03;;;;;;;21.00;16.10;;;;;;;;;;4990607;28;20399;-66
2024/01/29 07:06:29;;;;;;;21.40;15.98;;;;;;;;;;4992679;28;20050;-66
2024/01/29 07:08:56;;;;;;;19.30;15.70;;;;;;;;;;4992164;28;20054;-66
2024/01/29 07:11:22;;;;;;;21.15;15.48;;;;;;;;;;5031102;28;20050;-66
2024/01/29 07:13:48;;;;;;;21.77;16.20;;;;;;;;;;4990316;28;20149;-66
2024/01/29 07:16:14;;;;;;;21.83;16.25;;;;;;;;;;4989008;28;20138;-66
2024/01/29 07:18:40;;;;;;;21.95;17.13;;;;;;;;;;4987132;28;20046;-66
2024/01/29 07:21:12;;;;;;;21.13;17.45;;;;;;;;;;4990914;28;20046;-66
2024/01/29 07:23:38;;;;;;;20.42;15.70;;;;;;;;;;4991219;28;20434;-66
2024/01/29 07:26:07;;;;;;;20.05;15.75;;;;;;;;;;5017440;28;20042;-66
2024/01/29 07:28:33;;;;;;;19.77;16.27;;;;;;;;;;4987859;28;20057;-66
2024/01/29 07:30:59;;;;;;;23.55;15.68;;;;;;;;;;4986999;28;20038;-66
2024/01/29 07:33:25;;;;;;;21.38;16.65;;;;;;;;;;4983997;28;20069;-67
2024/01/29 07:35:51;;;;;;;21.02;16.63;;;;;;;;;;4987619;28;20044;-66
2024/01/29 07:38:17;;;;;;;22.35;16.10;;;;;;;;;;4991878;28;20058;-66
2024/01/29 07:40:43;;;;;;;22.80;16.13;;;;;;;;;;4991868;28;20108;-66
2024/01/29 07:43:09;;;;;;;30.92;19.58;;;;;;;;;;4990138;28;20058;-66
2024/01/29 07:45:35;;;;;;;32.67;20.25;;;;;;;;;;4992624;28;20444;-66
2024/01/29 07:48:04;;;;;;;20.25;16.17;;;;;;;;;;4992907;28;20096;-66
2024/01/29 07:50:30;;;;;;;19.88;16.60;;;;;;;;;;4994542;28;20053;-66
2024/01/29 07:52:56;;;;;;;18.38;15.27;;;;;;;;;;4997475;28;20532;-66
2024/01/29 07:55:23;;;;;;;19.52;15.80;;;;;;;;;;4990267;28;20089;-66
2024/01/29 07:57:49;;;;;;;21.33;16.13;;;;;;;;;;4995896;28;20157;-66
2024/01/29 08:00:15;;;;;;;20.92;16.08;;;;;;;;;;4999925;28;20052;-66
2024/01/29 08:02:41;;;;;;;21.30;16.63;;;;;;;;;;5002280;28;20092;-66
2024/01/29 08:05:10;;;;;;;22.10;16.13;;;;;;;;;;4995578;28;20054;-66
2024/01/29 08:07:37;;;;;;;24.40;17.25;;;;;;;;;;5028344;28;20084;-66
2024/01/29 08:10:03;;;;;;;19.55;16.50;;;;;;;;;;5004343;28;20054;-66
2024/01/29 08:12:32;;;;;;;26.45;17.08;;;;;;;;;;4998561;28;20058;-66
2024/01/29 08:14:59;;;;;;;21.02;16.13;;;;;;;;;;4995199;28;20482;-67
2024/01/29 08:17:26;;;;;;;19.67;16.10;;;;;;;;;;4973984;28;20472;-67
2024/01/29 08:19:52;;;;;;;20.48;16.25;;;;;;;;;;4977709;28;20053;-67
2024/01/29 08:22:18;;;;;;;22.17;16.30;;;;;;;;;;4992264;28;20050;-67
2024/01/29 08:24:47;;;;;;;23.98;17.25;;;;;;;;;;4993830;28;20491;-67
2024/01/29 08:27:13;;;;;;;21.85;16.60;;;;;;;;;;4998911;28;20148;-67
2024/01/29 08:29:39;;;;;;;24.90;17.15;;;;;;;;;;5002493;28;20263;-66
2024/01/29 08:32:05;;;;;;;21.08;17.33;;;;;;;;;;4983825;28;20113;-67
2024/01/29 08:34:31;;;;;;;23.60;16.88;;;;;;;;;;4991689;28;20042;-67
2024/01/29 08:36:58;;;;;;;21.65;16.83;;;;;;;;;;4995302;28;20053;-67
2024/01/29 08:39:24;;;;;;;22.27;17.13;;;;;;;;;;4991883;28;20089;-67
2024/01/29 08:41:52;;;;;;;20.05;15.93;;;;;;;;;;4986342;28;20057;-67
2024/01/29 08:44:18;;;;;;;22.27;17.05;;;;;;;;;;4999698;28;20062;-67
2024/01/29 08:46:44;;;;;;;23.25;17.20;;;;;;;;;;4992545;28;20062;-67
2024/01/29 08:49:10;;;;;;;21.55;16.67;;;;;;;;;;4994758;28;20517;-67
2024/01/29 08:51:36;;;;;;;23.70;16.75;;;;;;;;;;4987317;28;20041;-68
2024/01/29 08:54:02;;;;;;;22.13;16.20;;;;;;;;;;4989770;28;20050;-67
2024/01/29 08:56:30;;;;;;;22.73;16.65;;;;;;;;;;5001799;28;20072;-66
2024/01/29 08:58:57;;;;;;;19.60;15.63;;;;;;;;;;4981893;28;20049;-67
2024/01/29 09:01:23;;;;;;;23.70;16.90;;;;;;;;;;4990946;28;20058;-67
2024/01/29 09:03:49;;;;;;;22.40;17.38;;;;;;;;;;4977609;28;20553;-68
2024/01/29 09:06:15;;;;;;;22.23;16.85;;;;;;;;;;5014859;28;20526;-67
2024/01/29 09:08:44;;;;;;;22.25;17.10;;;;;;;;;;4990132;28;20097;-67
2024/01/29 09:11:10;;;;;;;20.35;17.42;;;;;;;;;;4989180;28;20062;-66
2024/01/29 09:13:37;;;;;;;20.05;16.33;;;;;;;;;;4975234;28;20055;-67
2024/01/29 09:16:03;;;;;;;23.67;17.02;;;;;;;;;;5011047;28;20103;-67
2024/01/29 09:18:29;;;;;;;23.65;17.17;;;;;;;;;;4973929;28;20562;-67
2024/01/29 09:20:55;;;;;;;21.02;17.25;;;;;;;;;;4973231;28;20481;-68
2024/01/29 09:23:21;;;;;;;24.63;17.33;;;;;;;;;;4987442;28;20050;-67
2024/01/29 09:25:48;;;;;;;20.92;16.27;;;;;;;;;;5000332;28;20225;-68
2024/01/29 09:28:14;;;;;;;21.63;16.67;;;;;;;;;;4986846;28;20050;-67
2024/01/29 09:30:40;;;;;;;21.05;17.40;;;;;;;;;;4991632;28;20038;-67
2024/01/29 09:33:06;;;;;;;19.60;16.08;;;;;;;;;;5002552;28;20054;-67
2024/01/29 09:35:32;;;;;;;24.75;17.45;;;;;;;;;;4982975;28;20055;-67
2024/01/29 09:37:58;;;;;;;22.58;17.83;;;;;;;;;;4985273;28;20057;-68
2024/01/29 09:40:24;;;;;;;19.67;16.73;;;;;;;;;;4980288;28;20402;-68
2024/01/29 09:42:52;;;;;;;20.90;16.77;;;;;;;;;;4992567;28;20061;-67
2024/01/29 09:45:23;;;;;;;21.52;16.52;;;;;;;;;;5034126;28;20081;-68
2024/01/29 09:47:50;;;;;;;21.80;17.02;;;;;;;;;;4985458;28;20054;-67
2024/01/29 09:50:16;;;;;;;20.08;16.48;;;;;;;;;;4984677;28;20054;-68
2024/01/29 09:52:43;;;;;;;24.30;17.83;;;;;;;;;;4992572;28;20070;-68
2024/01/29 09:55:12;;;;;;;21.33;16.90;;;;;;;;;;4987065;28;20093;-67
2024/01/29 09:57:39;;;;;;;22.25;16.85;;;;;;;;;;4992787;28;20061;-67
2024/01/29 10:00:06;;;;;;;22.75;17.15;;;;;;;;;;4976661;28;20055;-67
2024/01/29 10:02:34;;;;;;;23.92;17.60;;;;;;;;;;4988867;28;20434;-67
2024/01/29 10:05:00;;;;;;;20.45;16.30;;;;;;;;;;4989582;28;20402;-68
2024/01/29 10:07:26;;;;;;;24.35;17.27;;;;;;;;;;4986658;28;20402;-70
2024/01/29 10:09:52;;;;;;;21.98;17.30;;;;;;;;;;4989167;28;20506;-67
2024/01/29 10:12:26;;;;;;;23.75;18.33;;;;;;;;;;4995310;28;20058;-67
2024/01/29 10:14:55;;;;;;;23.33;17.70;;;;;;;;;;4988709;28;20047;-67
2024/01/29 10:17:23;;;;;;;24.88;18.42;;;;;;;;;;4974408;28;20050;-67
2024/01/29 10:19:49;;;;;;;28.38;18.60;;;;;;;;;;4975559;28;20603;-67
2024/01/29 10:22:15;;;;;;;28.15;19.38;;;;;;;;;;4975080;28;20101;-67
2024/01/29 10:24:41;;;;;;;29.58;19.02;;;;;;;;;;4973505;28;20122;-67
2024/01/29 10:27:08;;;;;;;28.67;18.98;;;;;;;;;;4975390;28;20446;-69
2024/01/29 10:29:34;;;;;;;33.00;20.05;;;;;;;;;;5006330;28;20053;-67
2024/01/29 10:32:00;;;;;;;34.92;19.92;;;;;;;;;;4975983;28;20463;-67
2024/01/29 10:34:26;;;;;;;35.53;21.02;;;;;;;;;;4975987;28;20066;-68
2024/01/29 10:36:54;;;;;;;32.95;20.48;;;;;;;;;;4975513;28;20042;-67
2024/01/29 10:39:22;;;;;;;36.33;21.10;;;;;;;;;;5006446;28;20046;-67
2024/01/29 10:41:51;;;;;;;35.17;20.17;;;;;;;;;;4979330;28;20039;-67
2024/01/29 10:44:17;;;;;;;38.30;20.08;;;;;;;;;;4978605;28;20571;-67
2024/01/29 10:46:45;;;;;;;35.80;19.33;;;;;;;;;;4987340;28;20050;-67
2024/01/29 10:49:11;;;;;;;34.90;19.80;;;;;;;;;;4991785;28;20050;-68
2024/01/29 10:51:38;;;;;;;38.72;20.73;;;;;;;;;;4987663;28;20123;-67
2024/01/29 10:54:04;;;;;;;38.78;21.13;;;;;;;;;;4988321;28;20054;-67
2024/01/29 10:56:30;;;;;;;38.47;20.45;;;;;;;;;;4980344;28;20047;-67
2024/01/29 10:58:58;;;;;;;41.55;22.40;;;;;;;;;;4983780;28;20106;-67
2024/01/29 11:01:25;;;;;;;36.70;21.88;;;;;;;;;;4993267;28;20057;-67
2024/01/29 11:03:52;;;;;;;48.70;22.67;;;;;;;;;;4998675;28;20132;-67
2024/01/29 11:06:27;;;;;;;38.50;21.77;;;;;;;;;;4998015;28;20047;-67
2024/01/29 11:08:56;;;;;;;36.65;20.92;;;;;;;;;;4980645;28;20050;-67
2024/01/29 11:11:23;;;;;;;32.65;21.08;;;;;;;;;;4992598;28;20047;-67
2024/01/29 11:13:49;;;;;;;32.28;20.77;;;;;;;;;;4978766;28;20069;-67
2024/01/29 11:16:15;;;;;;;31.52;20.95;;;;;;;;;;4986905;28;20058;-67
2024/01/29 11:18:43;;;;;;;37.67;21.35;;;;;;;;;;4996157;28;20046;-67
2024/01/29 11:21:14;;;;;;;33.85;20.52;;;;;;;;;;4997602;28;20478;-67
2024/01/29 11:23:46;;;;;;;36.67;20.85;;;;;;;;;;4997666;28;20368;-67
2024/01/29 11:26:16;;;;;;;30.98;20.63;;;;;;;;;;4995712;28;20271;-67
2024/01/29 11:28:43;;;;;;;30.20;20.10;;;;;;;;;;4992884;28;20533;-67
2024/01/29 11:31:11;;;;;;;27.30;19.25;;;;;;;;;;4990171;28;20077;-67
2024/01/29 11:33:37;;;;;;;26.85;19.10;;;;;;;;;;4985678;28;20053;-67
2024/01/29 11:36:07;;;;;;;29.08;19.17;;;;;;;;;;5022114;28;20042;-67
2024/01/29 11:38:35;;;;;;;29.05;19.17;;;;;;;;;;4989093;28;20460;-67
2024/01/29 11:41:02;;;;;;;25.85;19.17;;;;;;;;;;4989482;28;20110;-67
2024/01/29 11:43:28;;;;;;;24.35;17.80;;;;;;;;;;5032974;28;20417;-68
2024/01/29 11:45:54;;;;;;;25.45;19.05;;;;;;;;;;5019264;28;20054;-67
2024/01/29 11:48:21;;;;;;;33.90;22.27;;;;;;;;;;4981683;28;20414;-67
2024/01/29 11:50:51;;;;;;;33.80;22.88;;;;;;;;;;5022079;28;20124;-67
2024/01/29 11:53:18;;;;;;;22.70;18.48;;;;;;;;;;4987593;28;20058;-67
2024/01/29 11:55:46;;;;;;;22.65;19.25;;;;;;;;;;4986582;28;20050;-68
2024/01/29 11:58:25;;;;;;;24.92;18.55;;;;;;;;;;4992489;28;20124;-67
2024/01/29 12:00:52;;;;;;;24.65;18.80;;;;;;;;;;4995711;28;20096;-67
2024/01/29 12:03:34;;;;;;;22.65;19.25;;;;;;;;;;5007912;28;20805;-68
2024/01/29 12:06:00;;;;;;;24.50;18.85;;;;;;;;;;5004022;28;20046;-67
2024/01/29 12:08:27;;;;;;;25.70;19.35;;;;;;;;;;4988524;28;20046;-68
2024/01/29 12:10:59;;;;;;;23.58;19.02;;;;;;;;;;4988179;28;20133;-67
2024/01/29 12:13:25;;;;;;;24.55;18.75;;;;;;;;;;4984592;28;20105;-67
2024/01/29 12:15:53;;;;;;;23.15;18.83;;;;;;;;;;4992127;28;20453;-67
2024/01/29 12:18:23;;;;;;;24.38;18.98;;;;;;;;;;4983645;28;20057;-67
2024/01/29 12:20:53;;;;;;;24.10;18.40;;;;;;;;;;4988981;28;20137;-67
2024/01/29 12:23:22;;;;;;;22.90;18.55;;;;;;;;;;4982609;28;20125;-67
2024/01/29 12:25:55;;;;;;;25.73;19.83;;;;;;;;;;4979896;28;20046;-67
2024/01/29 12:28:21;;;;;;;22.92;18.83;;;;;;;;;;4981447;28;20516;-67
2024/01/29 12:31:07;;;;;;;25.50;19.55;;;;;;;;;;5013348;28;20137;-69
2024/01/29 12:33:34;;;;;;;24.33;19.45;;;;;;;;;;5011514;28;20514;-68
2024/01/29 12:36:11;;;;;;;23.98;19.25;;;;;;;;;;5013514;28;20125;-68
2024/01/29 12:38:37;;;;;;;22.77;19.10;;;;;;;;;;4983448;28;20484;-67
2024/01/29 12:41:03;;;;;;;25.90;20.05;;;;;;;;;;5017667;28;20046;-67
2024/01/29 12:43:30;;;;;;;24.25;19.02;;;;;;;;;;5011894;28;20046;-67
2024/01/29 12:46:22;;;;;;;25.75;20.02;;;;;;;;;;5018204;28;20047;-68
2024/01/29 12:48:48;;;;;;;23.88;18.63;;;;;;;;;;4979759;28;21053;-67
2024/01/29 12:51:15;;;;;;;24.10;19.35;;;;;;;;;;4975633;28;20137;-68
2024/01/29 12:53:42;;;;;;;29.08;21.25;;;;;;;;;;5018064;28;20129;-67
2024/01/29 12:56:08;;;;;;;24.95;20.13;;;;;;;;;;5020321;28;20062;-67
2024/01/29 12:58:34;;;;;;;23.80;19.70;;;;;;;;;;4986742;28;20046;-67
2024/01/29 13:01:00;;;;;;;23.60;19.63;;;;;;;;;;5019571;28;20482;-67
2024/01/29 13:03:26;;;;;;;27.85;19.85;;;;;;;;;;4986800;28;20096;-67
2024/01/29 13:05:53;;;;;;;25.00;19.17;;;;;;;;;;5020526;28;20106;-68
2024/01/29 13:08:19;;;;;;;24.42;20.02;;;;;;;;;;4986406;28;20466;-68
2024/01/29 13:10:45;;;;;;;24.58;19.83;;;;;;;;;;4989182;28;20502;-68
2024/01/29 13:13:12;;;;;;;25.55;19.63;;;;;;;;;;4987092;28;20234;-67
2024/01/29 13:15:39;;;;;;;25.63;19.77;;;;;;;;;;5015254;28;20078;-67
2024/01/29 13:18:05;;;;;;;27.75;20.33;;;;;;;;;;4984693;28;20458;-67
2024/01/29 13:20:32;;;;;;;24.75;20.75;;;;;;;;;;4984963;28;20038;-67
2024/01/29 13:22:58;;;;;;;27.80;20.30;;;;;;;;;;5020531;28;20402;-67
2024/01/29 13:25:24;;;;;;;26.15;19.83;;;;;;;;;;5019047;28;20061;-67
2024/01/29 13:27:52;;;;;;;26.33;19.52;;;;;;;;;;4986926;28;20050;-67
2024/01/29 13:30:18;;;;;;;25.50;18.80;;;;;;;;;;5019125;28;20054;-68
2024/01/29 13:32:44;;;;;;;22.85;20.38;;;;;;;;;;5017608;28;20050;-68
2024/01/29 13:35:10;;;;;;;24.73;20.25;;;;;;;;;;4982400;28;20051;-68
2024/01/29 13:37:36;;;;;;;25.65;19.05;;;;;;;;;;4986528;28;20147;-67
2024/01/29 13:40:02;;;;;;;24.77;20.42;;;;;;;;;;5014860;28;20069;-67
2024/01/29 13:42:28;;;;;;;25.50;18.73;;;;;;;;;;4987024;28;20046;-68
2024/01/29 13:44:57;;;;;;;24.40;19.27;;;;;;;;;;4989343;28;20042;-68
2024/01/29 13:47:23;;;;;;;25.23;19.67;;;;;;;;;;5016463;28;20112;-67
2024/01/29 13:49:49;;;;;;;26.70;19.77;;;;;;;;;;5015152;28;20046;-68
2024/01/29 13:52:15;;;;;;;23.92;19.67;;;;;;;;;;4985397;28;20074;-68
2024/01/29 13:54:44;;;;;;;26.50;21.50;;;;;;;;;;5019646;28;20120;-67
2024/01/29 13:57:12;;;;;;;26.15;20.30;;;;;;;;;;5014832;28;20612;-67
2024/01/29 13:59:38;;;;;;;24.98;20.33;;;;;;;;;;4987831;28;20038;-67
2024/01/29 14:02:07;;;;;;;28.25;20.27;;;;;;;;;;4982134;28;20057;-67
2024/01/29 14:04:33;;;;;;;24.58;20.02;;;;;;;;;;4985321;28;20042;-68
2024/01/29 14:07:00;;;;;;;26.88;20.77;;;;;;;;;;4988586;28;20100;-68
2024/01/29 14:09:26;;;;;;;25.00;19.90;;;;;;;;;;5015907;28;20057;-68
2024/01/29 14:11:55;;;;;;;37.13;21.45;;;;;;;;;;5018362;28;20058;-68
2024/01/29 14:14:21;;;;;;;27.42;20.65;;;;;;;;;;5016251;28;20126;-68
2024/01/29 14:16:47;;;;;;;25.83;20.58;;;;;;;;;;5017806;28;20045;-68